createdAt,value
2022-08-26T00:01:45.338Z,85.20
2022-08-26T00:06:48.509Z,84.99
2022-08-26T00:11:52.239Z,85.09
2022-08-26T00:16:55.175Z,85.31
2022-08-26T00:21:58.201Z,85.19
2022-08-26T00:27:00.957Z,85.40
2022-08-26T00:32:04.177Z,85.89
2022-08-26T00:37:08.725Z,86.12
2022-08-26T00:42:13.100Z,86.39
2022-08-26T00:47:34.113Z,86.89
2022-08-26T00:52:37.748Z,87.08
2022-08-26T00:57:42.582Z,87.13
2022-08-26T01:02:47.686Z,87.00
2022-08-26T01:07:50.772Z,86.69
2022-08-26T01:12:58.219Z,86.23
2022-08-26T01:18:04.070Z,86.51
2022-08-26T01:23:08.678Z,87.06
2022-08-26T01:28:21.825Z,87.14
2022-08-26T01:33:31.799Z,87.05
2022-08-26T01:38:45.244Z,87.07
2022-08-26T01:43:53.339Z,86.95
2022-08-26T01:49:00.263Z,86.73
2022-08-26T01:54:06.001Z,86.83
2022-08-26T01:59:12.539Z,87.09
2022-08-26T02:04:39.981Z,87.34
2022-08-26T02:09:51.152Z,87.55
2022-08-26T02:14:58.119Z,87.92
2022-08-26T02:20:02.434Z,88.13
2022-08-26T02:25:12.111Z,88.04
2022-08-26T02:30:25.442Z,88.27
2022-08-26T02:35:29.184Z,88.88
2022-08-26T02:40:39.313Z,89.14
2022-08-26T02:45:43.047Z,88.90
2022-08-26T02:50:46.356Z,88.81
2022-08-26T02:55:49.589Z,88.69
2022-08-26T03:00:53.786Z,88.80
2022-08-26T03:05:57.718Z,88.94
2022-08-26T03:11:01.665Z,88.83
2022-08-26T03:16:05.043Z,88.96
2022-08-26T03:21:14.570Z,88.70
2022-08-26T03:26:17.478Z,88.26
2022-08-26T03:31:20.200Z,88.43
2022-08-26T03:36:27.559Z,88.76
2022-08-26T03:41:32.722Z,89.07
2022-08-26T03:46:35.632Z,89.28
2022-08-26T03:51:39.215Z,89.14
2022-08-26T03:56:41.935Z,89.12
2022-08-26T04:01:44.690Z,89.22
2022-08-26T04:06:47.619Z,88.82
2022-08-26T04:11:50.896Z,88.59
2022-08-26T04:16:56.706Z,88.48
2022-08-26T04:22:00.267Z,88.48
2022-08-26T04:27:03.869Z,88.50
2022-08-26T04:32:08.820Z,88.71
2022-08-26T04:37:12.113Z,89.05
2022-08-26T04:42:19.886Z,89.05
2022-08-26T04:47:32.212Z,89.40
2022-08-26T04:52:36.894Z,89.29
2022-08-26T04:57:40.465Z,89.48
2022-08-26T05:02:43.299Z,89.64
2022-08-26T05:07:46.012Z,89.93
2022-08-26T05:12:49.090Z,89.88
2022-08-26T05:17:52.053Z,89.61
2022-08-26T05:22:54.726Z,89.62
2022-08-26T05:27:58.126Z,89.79
2022-08-26T05:33:02.015Z,89.58
2022-08-26T05:38:12.390Z,89.25
2022-08-26T05:43:16.849Z,88.73
2022-08-26T05:48:24.356Z,88.36
2022-08-26T05:53:27.372Z,88.05
2022-08-26T05:58:30.063Z,87.48
2022-08-26T06:03:37.433Z,86.79
2022-08-26T06:08:41.005Z,85.47
2022-08-26T06:13:45.042Z,84.25
2022-08-26T06:18:50.993Z,82.39
2022-08-26T06:24:13.665Z,80.77
2022-08-26T06:29:24.041Z,79.43
2022-08-26T06:34:31.092Z,77.67
2022-08-26T06:39:34.599Z,78.07
2022-08-26T06:44:38.046Z,76.99
2022-08-26T06:49:44.223Z,75.98
2022-08-26T06:54:47.285Z,74.59
2022-08-26T06:59:51.237Z,74.06
2022-08-26T07:04:54.436Z,72.71
2022-08-26T07:10:00.475Z,69.41
2022-08-26T07:15:04.922Z,67.05
2022-08-26T07:20:09.107Z,64.96
2022-08-26T07:25:12.329Z,64.61
2022-08-26T07:30:15.224Z,63.77
2022-08-26T07:35:18.459Z,63.78
2022-08-26T07:40:22.408Z,63.16
2022-08-26T07:45:25.394Z,60.51
2022-08-26T07:50:49.294Z,61.31
2022-08-26T07:55:51.556Z,60.16
2022-08-26T08:00:55.195Z,58.58
2022-08-26T08:05:57.973Z,59.58
2022-08-26T08:11:01.460Z,59.79
2022-08-26T08:16:05.738Z,59.60
2022-08-26T08:21:21.151Z,60.29
2022-08-26T08:26:26.642Z,60.87
2022-08-26T08:31:55.766Z,59.56
2022-08-26T08:36:57.198Z,58.29
2022-08-26T08:42:06.567Z,56.82
2022-08-26T08:47:35.626Z,56.91
2022-08-26T08:52:41.474Z,54.91
2022-08-26T08:58:02.271Z,54.63
2022-08-26T09:03:37.746Z,53.54
2022-08-26T09:08:41.718Z,53.67
2022-08-26T09:13:54.166Z,52.20
2022-08-26T09:19:35.022Z,52.47
2022-08-26T09:24:41.884Z,52.88
2022-08-26T09:29:51.001Z,52.76
2022-08-26T09:35:00.197Z,52.04
2022-08-26T09:40:34.554Z,49.60
2022-08-26T09:45:41.450Z,48.49
2022-08-26T09:50:54.812Z,47.52
2022-08-26T09:56:22.156Z,47.12
2022-08-26T10:01:34.969Z,46.54
2022-08-26T10:06:43.738Z,46.82
2022-08-26T10:11:51.979Z,45.62
2022-08-26T10:17:02.508Z,44.24
2022-08-26T10:22:16.805Z,43.31
2022-08-26T10:27:53.403Z,42.46
2022-08-26T10:33:03.889Z,42.53
2022-08-26T10:38:15.196Z,43.40
2022-08-26T10:43:26.400Z,43.65
2022-08-26T10:49:00.057Z,43.65
2022-08-26T10:54:29.103Z,44.70
2022-08-26T10:59:56.197Z,45.45
2022-08-26T11:05:16.971Z,45.48
2022-08-26T11:10:19.837Z,45.16
2022-08-26T11:15:26.508Z,45.47
2022-08-26T11:20:42.329Z,46.68
2022-08-26T11:26:08.725Z,46.98
2022-08-26T11:31:34.552Z,47.04
2022-08-26T11:36:40.750Z,46.84
2022-08-26T11:41:46.750Z,46.54
2022-08-26T11:47:00.997Z,45.19
2022-08-26T11:52:18.119Z,42.86
2022-08-26T11:57:24.160Z,40.70
2022-08-26T12:02:27.999Z,40.25
2022-08-26T12:07:30.838Z,38.71
2022-08-26T12:12:37.872Z,37.47
2022-08-26T12:17:41.968Z,36.58
2022-08-26T12:22:48.148Z,36.24
2022-08-26T12:27:54.081Z,35.83
2022-08-26T12:33:14.174Z,36.21
2022-08-26T12:38:28.123Z,35.52
2022-08-26T12:43:40.633Z,35.49
2022-08-26T12:48:48.968Z,35.89
2022-08-26T12:53:52.563Z,35.94
2022-08-26T12:59:10.242Z,36.89
2022-08-26T13:04:35.361Z,37.39
2022-08-26T13:09:38.674Z,38.98
2022-08-26T13:14:41.578Z,39.07
2022-08-26T13:19:44.429Z,39.27
2022-08-26T13:24:47.487Z,38.98
2022-08-26T13:29:51.417Z,37.95
2022-08-26T13:34:55.752Z,35.63
2022-08-26T13:39:59.305Z,36.23
2022-08-26T13:45:02.893Z,35.23
2022-08-26T13:50:06.454Z,35.59
2022-08-26T13:55:12.095Z,34.43
2022-08-26T14:00:17.477Z,34.30
2022-08-26T14:05:20.343Z,35.38
2022-08-26T14:10:24.285Z,35.92
2022-08-26T14:15:28.023Z,36.00
2022-08-26T14:20:33.666Z,37.36
2022-08-26T14:25:36.463Z,38.47
2022-08-26T14:30:42.441Z,39.37
2022-08-26T14:35:49.006Z,40.37
2022-08-26T14:40:52.958Z,39.43
2022-08-26T14:45:56.067Z,37.46
2022-08-26T14:50:59.073Z,36.12
2022-08-26T14:56:02.491Z,34.55
2022-08-26T15:01:07.952Z,32.53
2022-08-26T15:06:11.675Z,30.82
2022-08-26T15:11:14.783Z,29.26
2022-08-26T15:16:17.724Z,27.86
2022-08-26T15:21:22.244Z,26.77
2022-08-26T15:26:25.235Z,25.78
2022-08-26T15:31:31.465Z,24.97
2022-08-26T15:36:37.290Z,24.31
2022-08-26T15:41:41.217Z,23.92
2022-08-26T15:46:44.710Z,23.89
2022-08-26T15:51:50.712Z,24.51
2022-08-26T15:56:53.942Z,24.27
2022-08-26T16:01:58.231Z,24.17
2022-08-26T16:07:01.470Z,24.45
2022-08-26T16:12:04.601Z,24.55
2022-08-26T16:17:07.483Z,24.47
2022-08-26T16:22:10.391Z,26.37
2022-08-26T16:27:13.242Z,28.20
2022-08-26T16:32:16.399Z,29.95
2022-08-26T16:37:19.303Z,31.40
2022-08-26T16:42:22.309Z,32.33
2022-08-26T16:47:25.728Z,33.68
2022-08-26T16:52:30.184Z,34.69
2022-08-26T16:57:39.647Z,35.50
2022-08-26T17:02:42.555Z,36.86
2022-08-26T17:07:45.532Z,37.37
2022-08-26T17:12:48.943Z,37.91
2022-08-26T17:17:52.262Z,37.99
2022-08-26T17:22:55.623Z,38.53
2022-08-26T17:27:59.368Z,39.21
2022-08-26T17:33:02.379Z,39.89
2022-08-26T17:38:14.095Z,41.09
2022-08-26T17:43:17.820Z,42.35
2022-08-26T17:48:20.496Z,44.01
2022-08-26T17:53:24.994Z,45.45
2022-08-26T17:58:27.693Z,46.65
2022-08-26T18:03:32.687Z,47.46
2022-08-26T18:08:35.690Z,48.43
2022-08-26T18:13:39.389Z,48.96
2022-08-26T18:18:53.531Z,49.75
2022-08-26T18:23:57.473Z,50.16
2022-08-26T18:29:00.414Z,50.89
2022-08-26T18:34:03.468Z,51.63
2022-08-26T18:39:08.430Z,52.28
2022-08-26T18:44:13.823Z,53.32
2022-08-26T18:49:19.033Z,53.86
2022-08-26T18:54:22.188Z,53.47
2022-08-26T18:59:29.712Z,52.63
2022-08-26T19:04:33.313Z,52.80
2022-08-26T19:09:36.512Z,54.25
2022-08-26T19:14:39.269Z,54.13
2022-08-26T19:19:42.206Z,54.04
2022-08-26T19:24:44.917Z,54.23
2022-08-26T19:29:47.837Z,54.71
2022-08-26T19:34:52.233Z,54.66
2022-08-26T19:39:55.069Z,54.87
2022-08-26T19:45:24.726Z,55.23
2022-08-26T19:50:30.706Z,55.58
2022-08-26T19:55:33.868Z,55.65
2022-08-26T20:00:39.779Z,57.54
2022-08-26T20:05:42.629Z,59.09
2022-08-26T20:10:46.810Z,59.67
2022-08-26T20:15:49.534Z,60.55
2022-08-26T20:21:30.771Z,61.09
2022-08-26T20:26:35.518Z,61.77
2022-08-26T20:31:39.414Z,62.38
2022-08-26T20:36:43.189Z,62.85
2022-08-26T20:41:46.073Z,63.13
2022-08-26T20:46:49.181Z,63.55
2022-08-26T20:51:52.739Z,63.97
2022-08-26T20:56:57.056Z,64.40
2022-08-26T21:02:00.657Z,64.62
2022-08-26T21:07:03.564Z,64.80
2022-08-26T21:12:08.105Z,64.93
2022-08-26T21:17:11.008Z,65.01
2022-08-26T21:22:14.348Z,65.30
2022-08-26T21:27:17.686Z,65.55
2022-08-26T21:32:29.244Z,65.91
2022-08-26T21:37:32.353Z,66.20
2022-08-26T21:42:36.176Z,66.37
2022-08-26T21:47:39.724Z,66.04
2022-08-26T21:52:42.597Z,65.94
2022-08-26T21:57:45.808Z,65.95
2022-08-26T22:02:50.453Z,66.20
2022-08-26T22:07:53.776Z,66.40
2022-08-26T22:12:56.773Z,66.61
2022-08-26T22:17:59.782Z,66.72
2022-08-26T22:23:02.785Z,66.68
2022-08-26T22:28:06.502Z,66.95
2022-08-26T22:33:09.923Z,67.44
2022-08-26T22:38:13.722Z,67.80
2022-08-26T22:43:18.559Z,68.18
2022-08-26T22:48:24.174Z,68.47
2022-08-26T22:53:27.388Z,68.50
2022-08-26T22:58:30.981Z,68.81
2022-08-26T23:03:35.322Z,68.90
2022-08-26T23:08:39.676Z,69.01
2022-08-26T23:13:42.987Z,69.00
2022-08-26T23:18:46.093Z,68.95
2022-08-26T23:23:49.071Z,68.84
2022-08-26T23:28:53.436Z,68.86
2022-08-26T23:34:15.184Z,68.62
2022-08-26T23:39:18.187Z,68.59
2022-08-26T23:44:21.436Z,68.55
2022-08-26T23:49:25.625Z,68.69
2022-08-26T23:54:28.540Z,68.64
2022-08-26T23:59:32.005Z,68.69
